Terminal Aerodrome Forecast
Issued by NWS Cleveland, OH

Home | Current Version | Previous Version | Graphics & Text | Print | Product List | Glossary On
Versions: 1 2 3 4 5 6 7 8 9 10 11 12 13 14 15 16 17 18 19 20 21 22 23 24 25 26 27 28
000
FTUS41 KCLE 290500
TAFMFD
TAF
KMFD 290540Z 2906/3006 VRB03KT P6SM BKN250
     FM290900 VRB03KT 4SM BR SCT250
      TEMPO 2909/2913 1SM BR BKN003
     FM291400 30005KT P6SM SKC
     FM300000 24003KT P6SM BKN250=

USA.gov is the U.S. government's official web portal to all federal, state and local government web resources and services.